createdAt,value
2022-08-30T00:01:33.072Z,96.01
2022-08-30T00:04:01.131Z,96.27
2022-08-30T00:06:32.317Z,96.54
2022-08-30T00:09:00.060Z,98.10
2022-08-30T00:11:28.351Z,99.18
2022-08-30T00:13:56.734Z,99.69
2022-08-30T00:16:24.635Z,100.00
2022-08-30T00:18:52.078Z,100.00
2022-08-30T00:21:19.284Z,100.00
2022-08-30T00:23:46.231Z,100.00
2022-08-30T00:26:13.103Z,100.00
2022-08-30T00:28:40.081Z,100.00
2022-08-30T00:31:07.704Z,100.00
2022-08-30T00:33:34.865Z,100.00
2022-08-30T00:36:01.747Z,100.00
2022-08-30T00:38:28.722Z,100.00
2022-08-30T00:40:55.581Z,100.00
2022-08-30T00:43:27.837Z,100.00
2022-08-30T00:45:55.792Z,100.00
2022-08-30T00:48:23.298Z,100.00
2022-08-30T00:50:56.156Z,100.00
2022-08-30T00:53:29.390Z,100.00
2022-08-30T00:55:57.634Z,100.00
2022-08-30T00:58:29.731Z,100.00
2022-08-30T01:01:00.908Z,100.00
2022-08-30T01:03:28.651Z,100.00
2022-08-30T01:05:58.787Z,100.00
2022-08-30T01:08:25.777Z,100.00
2022-08-30T01:10:53.984Z,100.00
2022-08-30T01:13:22.427Z,100.00
2022-08-30T01:15:50.773Z,100.00
2022-08-30T01:18:21.310Z,100.00
2022-08-30T01:21:16.926Z,100.00
2022-08-30T01:23:46.447Z,100.00
2022-08-30T01:26:21.977Z,100.00
2022-08-30T01:28:55.984Z,100.00
2022-08-30T01:31:23.217Z,100.00
2022-08-30T01:33:52.231Z,100.00
2022-08-30T01:36:21.709Z,99.39
2022-08-30T01:38:51.701Z,99.17
2022-08-30T01:41:26.083Z,98.98
2022-08-30T01:43:55.747Z,99.15
2022-08-30T01:46:25.525Z,98.70
2022-08-30T01:48:54.594Z,98.97
2022-08-30T01:51:23.999Z,99.39
2022-08-30T01:53:51.081Z,99.87
2022-08-30T01:57:34.281Z,99.92
2022-08-30T02:00:00.869Z,99.26
2022-08-30T02:02:29.536Z,98.98
2022-08-30T02:04:57.369Z,98.68
2022-08-30T02:07:25.780Z,98.73
2022-08-30T02:09:53.336Z,99.10
2022-08-30T02:12:21.103Z,99.89
2022-08-30T02:14:47.848Z,100.00
2022-08-30T02:17:17.297Z,100.00
2022-08-30T02:19:43.952Z,100.00
2022-08-30T02:22:11.408Z,100.00
2022-08-30T02:24:38.507Z,100.00
2022-08-30T02:27:05.620Z,100.00
2022-08-30T02:29:32.269Z,100.00
2022-08-30T02:31:59.469Z,100.00
2022-08-30T02:34:26.278Z,100.00
2022-08-30T02:36:52.945Z,100.00
2022-08-30T02:39:19.558Z,100.00
2022-08-30T02:41:46.294Z,100.00
2022-08-30T02:44:12.930Z,100.00
2022-08-30T02:46:39.718Z,100.00
2022-08-30T02:49:32.103Z,100.00
2022-08-30T02:51:55.368Z,100.00
2022-08-30T02:54:22.033Z,100.00
2022-08-30T02:56:50.156Z,100.00
2022-08-30T02:59:18.148Z,100.00
2022-08-30T03:01:44.879Z,100.00
2022-08-30T03:04:11.879Z,100.00
2022-08-30T03:06:38.929Z,100.00
2022-08-30T03:09:05.644Z,100.00
2022-08-30T03:11:32.714Z,100.00
2022-08-30T03:13:59.755Z,100.00
2022-08-30T03:16:26.514Z,100.00
2022-08-30T03:18:53.241Z,100.00
2022-08-30T03:21:19.881Z,100.00
2022-08-30T03:23:46.545Z,100.00
2022-08-30T03:26:15.059Z,100.00
2022-08-30T03:28:42.907Z,100.00
2022-08-30T03:31:10.173Z,100.00
2022-08-30T03:33:37.953Z,100.00
2022-08-30T03:36:05.692Z,100.00
2022-08-30T03:38:32.423Z,100.00
2022-08-30T03:40:59.112Z,100.00
2022-08-30T03:43:26.517Z,100.00
2022-08-30T03:45:53.337Z,100.00
2022-08-30T03:48:19.929Z,100.00
2022-08-30T03:50:47.083Z,100.00
2022-08-30T03:53:13.754Z,100.00
2022-08-30T03:58:40.729Z,100.00
2022-08-30T04:01:08.771Z,100.00
2022-08-30T04:03:35.691Z,100.00
2022-08-30T04:06:06.033Z,100.00
2022-08-30T04:08:32.996Z,99.66
2022-08-30T04:11:00.517Z,99.49
2022-08-30T04:13:27.859Z,100.00
2022-08-30T04:15:55.497Z,100.00
2022-08-30T04:18:22.765Z,100.00
2022-08-30T04:20:54.966Z,100.00
2022-08-30T04:23:23.083Z,100.00
2022-08-30T04:25:49.786Z,100.00
2022-08-30T04:28:16.635Z,100.00
2022-08-30T04:30:47.744Z,100.00
2022-08-30T04:33:18.220Z,100.00
2022-08-30T04:35:49.156Z,100.00
2022-08-30T04:38:17.641Z,100.00
2022-08-30T04:40:49.662Z,100.00
2022-08-30T04:43:16.869Z,100.00
2022-08-30T04:45:43.900Z,100.00
2022-08-30T04:48:13.483Z,100.00
2022-08-30T04:50:53.860Z,100.00
2022-08-30T04:53:24.270Z,100.00
2022-08-30T04:56:08.160Z,100.00
2022-08-30T04:58:35.050Z,100.00
2022-08-30T05:01:04.665Z,100.00
2022-08-30T05:03:42.842Z,100.00
2022-08-30T05:06:12.397Z,100.00
2022-08-30T05:08:39.367Z,100.00
2022-08-30T05:11:13.456Z,100.00
2022-08-30T05:13:40.340Z,100.00
2022-08-30T05:16:08.387Z,100.00
2022-08-30T05:18:38.886Z,100.00
2022-08-30T05:21:11.885Z,100.00
2022-08-30T05:23:40.230Z,100.00
2022-08-30T05:26:29.996Z,100.00
2022-08-30T05:28:57.114Z,100.00
2022-08-30T05:31:38.293Z,100.00
2022-08-30T05:34:05.561Z,100.00
2022-08-30T05:36:38.472Z,100.00
2022-08-30T05:39:07.698Z,100.00
2022-08-30T05:41:37.431Z,100.00
2022-08-30T05:44:08.811Z,100.00
2022-08-30T05:46:36.760Z,100.00
2022-08-30T05:49:06.670Z,100.00
2022-08-30T05:51:45.077Z,100.00
2022-08-30T05:54:16.644Z,100.00
2022-08-30T06:09:58.455Z,100.00
2022-08-30T06:12:25.742Z,98.84
2022-08-30T06:14:53.643Z,98.56
2022-08-30T06:17:20.583Z,98.93
2022-08-30T06:19:47.459Z,97.98
2022-08-30T06:22:14.331Z,96.80
2022-08-30T06:24:56.939Z,96.83
2022-08-30T06:27:24.312Z,96.12
2022-08-30T06:29:52.094Z,96.06
2022-08-30T06:32:18.788Z,93.85
2022-08-30T06:34:45.562Z,90.34
2022-08-30T06:37:12.230Z,88.02
2022-08-30T06:39:57.650Z,86.27
2022-08-30T06:42:24.638Z,83.66
2022-08-30T06:44:51.553Z,81.17
2022-08-30T06:47:18.304Z,81.05
2022-08-30T06:49:44.908Z,81.25
2022-08-30T06:52:11.777Z,83.35
2022-08-30T06:54:38.827Z,84.94
2022-08-30T06:57:05.680Z,84.33
2022-08-30T06:59:33.234Z,83.79
2022-08-30T07:01:59.923Z,83.70
2022-08-30T07:04:26.887Z,84.51
2022-08-30T07:06:53.647Z,86.03
2022-08-30T07:09:23.130Z,85.45
2022-08-30T07:11:51.229Z,84.74
2022-08-30T07:14:19.097Z,85.55
2022-08-30T07:16:46.919Z,83.09
2022-08-30T07:19:21.127Z,83.24
2022-08-30T07:21:49.378Z,82.32
2022-08-30T07:24:16.925Z,81.87
2022-08-30T07:26:49.022Z,81.18
2022-08-30T07:29:17.561Z,79.20
2022-08-30T07:31:44.573Z,77.09
2022-08-30T07:34:11.185Z,74.40
2022-08-30T07:36:39.138Z,71.86
2022-08-30T07:39:07.010Z,71.44
2022-08-30T07:41:39.038Z,71.80
2022-08-30T07:44:07.714Z,69.16
2022-08-30T07:46:35.265Z,67.51
2022-08-30T07:49:03.948Z,65.29
2022-08-30T07:51:31.977Z,61.93
2022-08-30T07:53:58.889Z,58.50
2022-08-30T07:56:26.109Z,55.01
2022-08-30T08:00:34.027Z,49.93
2022-08-30T08:03:14.993Z,50.02
2022-08-30T08:05:43.997Z,51.60
2022-08-30T08:08:11.692Z,52.84
2022-08-30T08:10:40.480Z,54.03
2022-08-30T08:13:07.639Z,52.60
2022-08-30T08:15:38.783Z,53.39
2022-08-30T08:18:06.790Z,53.57
2022-08-30T08:20:34.669Z,52.92
2022-08-30T08:23:02.348Z,52.34
2022-08-30T08:25:29.216Z,50.18
2022-08-30T08:27:57.615Z,48.32
2022-08-30T08:30:24.595Z,46.56
2022-08-30T08:32:51.934Z,45.81
2022-08-30T08:35:18.765Z,43.92
2022-08-30T08:37:45.436Z,44.61
2022-08-30T08:40:16.875Z,41.67
2022-08-30T08:43:05.252Z,41.77
2022-08-30T08:45:51.989Z,43.33
2022-08-30T08:48:51.825Z,44.66
2022-08-30T08:51:41.737Z,44.77
2022-08-30T08:54:17.579Z,44.01
2022-08-30T08:56:44.218Z,43.25
2022-08-30T08:59:12.256Z,44.16
2022-08-30T09:01:39.446Z,45.53
2022-08-30T09:04:11.867Z,44.44
2022-08-30T09:06:45.208Z,43.77
2022-08-30T09:09:12.923Z,45.69
2022-08-30T09:11:41.724Z,47.81
2022-08-30T09:14:17.037Z,47.21
2022-08-30T09:16:48.315Z,45.02
2022-08-30T09:19:53.949Z,44.77
2022-08-30T09:22:34.251Z,46.78
2022-08-30T09:25:08.474Z,47.44
2022-08-30T09:27:38.709Z,46.90
2022-08-30T09:30:22.308Z,47.92
2022-08-30T09:33:00.960Z,48.55
2022-08-30T09:35:36.544Z,49.77
2022-08-30T09:38:13.068Z,51.10
2022-08-30T09:40:44.106Z,50.87
2022-08-30T09:43:16.711Z,52.75
2022-08-30T09:45:49.994Z,49.97
2022-08-30T09:48:27.663Z,51.60
2022-08-30T09:51:34.013Z,50.81
2022-08-30T09:54:18.086Z,53.04
2022-08-30T09:56:53.415Z,55.99
2022-08-30T10:05:17.182Z,57.71
2022-08-30T10:05:33.371Z,58.21
2022-08-30T10:15:04.761Z,57.16
2022-08-30T10:17:49.201Z,57.80
2022-08-30T10:20:30.604Z,59.37
2022-08-30T10:23:02.672Z,59.05
2022-08-30T10:25:35.918Z,58.81
2022-08-30T10:28:38.458Z,58.98
2022-08-30T10:31:18.692Z,59.74
2022-08-30T10:33:49.639Z,60.94
2022-08-30T10:36:37.757Z,60.07
2022-08-30T10:44:49.883Z,58.82
2022-08-30T10:47:39.783Z,57.65
2022-08-30T10:50:38.955Z,54.28
2022-08-30T10:53:38.504Z,55.49
2022-08-30T10:58:57.955Z,57.32
2022-08-30T11:02:25.234Z,56.73
2022-08-30T11:09:26.654Z,55.41
2022-08-30T11:18:17.351Z,58.09
2022-08-30T11:21:15.832Z,56.26
2022-08-30T11:24:10.798Z,55.37
2022-08-30T11:27:34.716Z,56.68
2022-08-30T11:30:47.998Z,57.94
2022-08-30T11:33:42.822Z,58.54
2022-08-30T11:37:01.022Z,58.56
2022-08-30T11:40:03.895Z,58.36
2022-08-30T11:42:46.531Z,56.87
2022-08-30T11:48:54.634Z,56.08
2022-08-30T11:54:52.889Z,54.29
2022-08-30T11:57:41.431Z,55.46
2022-08-30T12:03:08.907Z,55.10
2022-08-30T12:09:21.832Z,55.58
2022-08-30T12:12:27.120Z,55.82
2022-08-30T12:14:59.994Z,55.43
2022-08-30T12:18:16.433Z,56.13
2022-08-30T12:41:32.424Z,53.67
2022-08-30T12:44:00.734Z,56.14
2022-08-30T12:46:34.079Z,55.93
2022-08-30T12:49:01.042Z,53.92
2022-08-30T12:51:48.600Z,54.56
2022-08-30T12:54:29.668Z,55.10
2022-08-30T12:57:18.969Z,54.72
2022-08-30T12:59:58.543Z,53.72
2022-08-30T13:02:45.181Z,53.77
2022-08-30T13:05:39.226Z,53.54
2022-08-30T13:08:22.694Z,54.85
2022-08-30T13:11:20.080Z,54.57
2022-08-30T13:13:52.017Z,50.65
2022-08-30T13:16:20.634Z,52.67
2022-08-30T13:19:19.242Z,52.93
2022-08-30T13:21:54.149Z,51.74
2022-08-30T13:24:25.229Z,52.04
2022-08-30T13:26:54.766Z,53.34
2022-08-30T13:29:26.527Z,53.75
2022-08-30T13:31:53.719Z,55.16
2022-08-30T13:34:22.686Z,55.73
2022-08-30T13:36:57.991Z,55.17
2022-08-30T13:39:25.712Z,55.91
2022-08-30T13:41:53.184Z,54.62
2022-08-30T13:44:20.341Z,56.05
2022-08-30T13:46:54.627Z,56.29
2022-08-30T13:49:44.231Z,55.16
2022-08-30T13:52:22.520Z,56.77
2022-08-30T13:54:51.837Z,56.48
2022-08-30T14:03:31.173Z,59.21
2022-08-30T14:06:29.170Z,58.80
2022-08-30T14:08:48.082Z,59.12
2022-08-30T14:11:19.717Z,59.10
2022-08-30T14:16:39.896Z,58.44
2022-08-30T14:19:08.357Z,58.21
2022-08-30T14:21:35.847Z,57.51
2022-08-30T14:24:04.851Z,55.16
2022-08-30T14:26:35.805Z,57.39
2022-08-30T14:29:09.240Z,56.77
2022-08-30T14:31:37.691Z,57.43
2022-08-30T14:34:05.718Z,56.79
2022-08-30T14:36:34.105Z,56.76
2022-08-30T14:39:01.160Z,56.71
2022-08-30T14:41:27.949Z,57.87
2022-08-30T14:43:54.558Z,58.99
2022-08-30T14:46:22.152Z,57.40
2022-08-30T14:48:50.369Z,57.15
2022-08-30T14:51:20.759Z,58.05
2022-08-30T14:53:48.644Z,59.22
2022-08-30T14:56:17.162Z,57.85
2022-08-30T14:58:48.128Z,58.67
2022-08-30T15:01:14.876Z,59.87
2022-08-30T15:03:42.204Z,61.16
2022-08-30T15:06:09.286Z,60.84
2022-08-30T15:08:36.462Z,60.09
2022-08-30T15:11:11.314Z,60.10
2022-08-30T15:13:38.303Z,61.52
2022-08-30T15:16:14.586Z,62.35
2022-08-30T15:18:41.702Z,60.35
2022-08-30T15:21:08.971Z,60.44
2022-08-30T15:23:36.744Z,60.41
2022-08-30T15:26:04.194Z,60.30
2022-08-30T15:28:31.380Z,59.74
2022-08-30T15:30:58.361Z,61.30
2022-08-30T15:33:25.662Z,60.63
2022-08-30T15:35:52.807Z,61.17
2022-08-30T15:38:21.917Z,62.37
2022-08-30T15:40:50.208Z,61.61
2022-08-30T15:43:17.882Z,60.86
2022-08-30T15:45:45.296Z,60.16
2022-08-30T15:48:12.382Z,59.99
2022-08-30T15:50:39.253Z,60.62
2022-08-30T15:53:07.393Z,61.03
2022-08-30T15:55:34.274Z,61.62
2022-08-30T15:58:00.924Z,61.63
2022-08-30T16:00:27.712Z,61.81
2022-08-30T16:04:35.159Z,61.57
2022-08-30T16:07:01.886Z,62.50
2022-08-30T16:09:30.060Z,62.04
2022-08-30T16:11:59.899Z,61.53
2022-08-30T16:14:27.691Z,63.45
2022-08-30T16:16:55.378Z,63.69
2022-08-30T16:19:22.153Z,63.34
2022-08-30T16:21:49.015Z,64.13
2022-08-30T16:24:18.761Z,64.79
2022-08-30T16:26:49.496Z,65.04
2022-08-30T16:29:16.209Z,65.08
2022-08-30T16:31:44.504Z,66.39
2022-08-30T16:34:12.966Z,66.56
2022-08-30T16:36:39.853Z,67.22
2022-08-30T16:39:08.683Z,67.98
2022-08-30T16:41:36.898Z,68.97
2022-08-30T16:44:05.251Z,69.06
2022-08-30T16:46:33.337Z,70.21
2022-08-30T16:49:03.548Z,70.67
2022-08-30T16:51:33.122Z,71.20
2022-08-30T16:54:04.456Z,70.38
2022-08-30T16:56:35.096Z,71.34
2022-08-30T16:59:03.372Z,72.08
2022-08-30T17:01:35.027Z,72.33
2022-08-30T17:04:02.799Z,72.37
2022-08-30T17:06:29.799Z,72.52
2022-08-30T17:08:56.747Z,72.18
2022-08-30T17:11:24.272Z,72.77
2022-08-30T17:13:51.159Z,72.61
2022-08-30T17:16:27.912Z,72.68
2022-08-30T17:19:00.458Z,72.65
2022-08-30T17:21:29.267Z,73.01
2022-08-30T17:24:01.760Z,73.40
2022-08-30T17:26:35.259Z,73.61
2022-08-30T17:29:02.818Z,74.03
2022-08-30T17:31:31.090Z,74.25
2022-08-30T17:34:03.410Z,74.68
2022-08-30T17:36:32.501Z,74.88
2022-08-30T17:38:59.156Z,74.88
2022-08-30T17:41:25.764Z,75.34
2022-08-30T17:43:53.720Z,75.24
2022-08-30T17:46:21.114Z,76.03
2022-08-30T17:48:47.835Z,76.33
2022-08-30T17:51:24.573Z,76.54
2022-08-30T17:53:51.133Z,76.78
2022-08-30T17:56:17.966Z,77.31
2022-08-30T17:58:44.538Z,78.05
2022-08-30T18:01:14.429Z,78.67
2022-08-30T18:05:30.402Z,79.29
2022-08-30T18:07:59.063Z,80.00
2022-08-30T18:10:34.453Z,79.96
2022-08-30T18:13:01.319Z,79.87
2022-08-30T18:15:29.438Z,80.03
2022-08-30T18:17:56.024Z,80.47
2022-08-30T18:20:22.707Z,81.03
2022-08-30T18:22:53.302Z,80.93
2022-08-30T18:25:20.079Z,81.43
2022-08-30T18:27:50.263Z,81.95
2022-08-30T18:30:31.157Z,82.04
2022-08-30T18:33:00.467Z,82.20
2022-08-30T18:35:27.833Z,82.68
2022-08-30T18:37:54.563Z,82.95
2022-08-30T18:40:21.411Z,83.08
2022-08-30T18:42:48.178Z,83.06
2022-08-30T18:45:15.604Z,82.87
2022-08-30T18:47:42.631Z,83.10
2022-08-30T18:50:09.366Z,83.34
2022-08-30T18:52:35.968Z,83.89
2022-08-30T18:55:02.738Z,84.02
2022-08-30T18:57:29.315Z,84.08
2022-08-30T18:59:57.829Z,83.95
2022-08-30T19:02:25.102Z,84.44
2022-08-30T19:04:54.950Z,84.89
2022-08-30T19:07:26.695Z,85.46
2022-08-30T19:09:59.059Z,86.34
2022-08-30T19:12:27.620Z,86.92
2022-08-30T19:14:54.534Z,87.05
2022-08-30T19:17:23.995Z,87.21
2022-08-30T19:19:52.363Z,87.93
2022-08-30T19:22:27.424Z,88.22
2022-08-30T19:24:57.285Z,88.85
2022-08-30T19:27:38.431Z,89.03
2022-08-30T19:30:10.075Z,89.11
2022-08-30T19:32:37.127Z,89.59
2022-08-30T19:35:04.565Z,89.88
2022-08-30T19:37:31.528Z,90.20
2022-08-30T19:40:01.459Z,90.45
2022-08-30T19:42:28.571Z,90.77
2022-08-30T19:44:55.208Z,91.04
2022-08-30T19:47:21.883Z,91.34
2022-08-30T19:49:48.660Z,91.92
2022-08-30T19:52:15.422Z,91.82
2022-08-30T19:54:42.166Z,91.76
2022-08-30T19:57:10.438Z,91.60
2022-08-30T19:59:38.149Z,91.92
2022-08-30T20:02:05.540Z,92.12
2022-08-30T20:06:36.017Z,93.20
2022-08-30T20:09:04.186Z,93.80
2022-08-30T20:11:30.840Z,94.17
2022-08-30T20:13:57.677Z,94.92
2022-08-30T20:16:33.257Z,95.73
2022-08-30T20:19:06.147Z,96.08
2022-08-30T20:21:32.909Z,96.35
2022-08-30T20:24:00.966Z,96.80
2022-08-30T20:26:33.962Z,97.09
2022-08-30T20:29:02.655Z,97.18
2022-08-30T20:31:29.674Z,97.34
2022-08-30T20:33:57.133Z,97.52
2022-08-30T20:36:24.439Z,97.37
2022-08-30T20:38:51.236Z,97.18
2022-08-30T20:41:20.343Z,97.96
2022-08-30T20:43:48.878Z,98.16
2022-08-30T20:46:18.574Z,98.30
2022-08-30T20:48:46.453Z,98.38
2022-08-30T20:51:18.022Z,98.67
2022-08-30T20:53:45.119Z,98.96
2022-08-30T20:56:18.031Z,98.98
2022-08-30T20:58:45.472Z,98.90
2022-08-30T21:01:12.897Z,98.58
2022-08-30T21:03:41.130Z,98.14
2022-08-30T21:06:08.077Z,97.80
2022-08-30T21:08:37.578Z,97.24
2022-08-30T21:11:04.770Z,97.06
2022-08-30T21:13:31.751Z,97.14
2022-08-30T21:16:03.308Z,97.26
2022-08-30T21:18:33.123Z,97.31
2022-08-30T21:21:13.895Z,97.97
2022-08-30T21:23:40.777Z,98.58
2022-08-30T21:26:08.719Z,99.55
2022-08-30T21:28:35.596Z,99.96
2022-08-30T21:31:12.783Z,100.00
2022-08-30T21:33:40.691Z,100.00
2022-08-30T21:36:26.735Z,100.00
2022-08-30T21:38:54.068Z,100.00
2022-08-30T21:41:26.906Z,100.00
2022-08-30T21:43:58.149Z,100.00
2022-08-30T21:46:29.302Z,99.30
2022-08-30T21:48:59.381Z,99.49
2022-08-30T21:51:25.976Z,100.00
2022-08-30T21:53:52.561Z,100.00
2022-08-30T21:56:22.177Z,100.00
2022-08-30T21:58:49.208Z,100.00
2022-08-30T22:01:25.311Z,100.00
2022-08-30T22:03:54.811Z,100.00
2022-08-30T22:07:32.378Z,100.00
2022-08-30T22:10:02.176Z,100.00
2022-08-30T22:12:28.799Z,100.00
2022-08-30T22:14:55.353Z,100.00
2022-08-30T22:17:28.405Z,100.00
2022-08-30T22:19:56.976Z,100.00
2022-08-30T22:22:26.166Z,100.00
2022-08-30T22:24:52.763Z,100.00
2022-08-30T22:27:19.358Z,100.00
2022-08-30T22:29:47.028Z,100.00
2022-08-30T22:32:13.784Z,99.85
2022-08-30T22:34:40.752Z,99.83
2022-08-30T22:37:08.009Z,100.00
2022-08-30T22:39:34.573Z,100.00
2022-08-30T22:42:01.176Z,100.00
2022-08-30T22:44:27.778Z,100.00
2022-08-30T22:46:54.539Z,100.00
2022-08-30T22:49:21.156Z,100.00
2022-08-30T22:51:47.726Z,100.00
2022-08-30T22:54:14.292Z,100.00
2022-08-30T22:56:41.669Z,100.00
2022-08-30T22:59:08.924Z,100.00
2022-08-30T23:01:42.982Z,100.00
2022-08-30T23:04:10.463Z,100.00
2022-08-30T23:06:37.309Z,100.00
2022-08-30T23:09:06.357Z,100.00
2022-08-30T23:11:33.234Z,100.00
2022-08-30T23:14:04.808Z,100.00
2022-08-30T23:16:32.646Z,100.00
2022-08-30T23:18:59.898Z,99.96
2022-08-30T23:21:28.933Z,99.95
2022-08-30T23:24:15.196Z,100.00
2022-08-30T23:27:02.958Z,100.00
2022-08-30T23:29:48.947Z,100.00
2022-08-30T23:32:34.246Z,100.00
2022-08-30T23:35:19.237Z,100.00
2022-08-30T23:38:05.103Z,100.00
2022-08-30T23:40:50.427Z,100.00
2022-08-30T23:43:35.629Z,100.00
2022-08-30T23:46:20.864Z,100.00
2022-08-30T23:49:07.511Z,100.00
2022-08-30T23:51:54.352Z,100.00
2022-08-30T23:54:39.593Z,100.00
2022-08-30T23:57:25.066Z,100.00
